EPZG

Zielona Góra-Babimost Airport

Babimost, Poland
METAR EPZG 092200Z 24014KT 210V270 9999 BKN034 07/05 Q0998
Observed Flight Rules
Dec-9 @ 22:00 UTC (17 minutes ago) Visual Flight Rules
Wind Visibility Clouds
240° at 14 knots 10,000+ meters
  • Broken at 3,400' AGL
Temperatures Readings
Current 7°C / 45°F
Dewpoint 5°C / 41°F
Humidity 87%
Altimeter 29.47" Hg
Pressure 998 hPa
Elevation 59
METAR EPZG 092200Z 24014KT 210V270 9999 BKN034 07/05 Q0998
Observed Flight Rules
Dec-9 @ 22:00 UTC
(17 minutes ago)
VFR
Wind Visibility
240° at 14 knots 10,000+ meters
Clouds
  • Broken at 3,400' AGL
Temperature Dewpoint
7°C / 45°F 5°C / 41°F
Humidity Altimeter Pressure
87% 29.47" Hg 998 hPa